メインページ
METAR-TAF:

METAR-TAF

空港 :

リガ, ラトビア

リガ国際空港

緯度: 56-55N, 経度: 023-58E, 海抜: 10m

現時点の気象観測

当レポートは10分前の23:20(UTC)に作成
南/南西の風 3kt
気温 -3°C
湿度 100%
気圧 1009 hPa
視程10km以上
1,500メートル以下は雲なし、積乱雲なし

METAR: EVRA 232320Z 20003KT CAVOK M03/M03 Q1009 NOSIG

時間: 02:30 (23:30 UTC)

予報

当レポートは3時間28分前の20:02(UTC)に作成
予報は23日の 21時(UTC)から 24日の 21時(UTC)まで有効
南/南西の風 5kt
視程10km以上
1,500メートル以下は雲なし、積乱雲なし
23日の 23時(UTC)から 24日の 04時(UTC)まで一時的に
視程: 3000m
24日の 04時(UTC)から 24日の 07時(UTC)まで一時的に
視程: 3000m
高度500ftの千切れ雲あり
小雨, 靄
24日の 09時(UTC)から 24日の 18時(UTC)まで一時的に
視程: 3000m
高度1500ftの雲は散在している, 積乱雲.
弱いにわか雨

TAF: EVRA 232002Z 2321/2421 20005KT CAVOK TEMPO 2323/2404 3000 BR TEMPO 2404/2407 3000 -RA BR BKN005 TEMPO 2409/2418 3000 -SHRA SCT015CB

4,000以上の空港の気象観測と天気予報(METAR報とTAF報)

利用可能な観測所は地図上に黄色い丸と赤い丸で示す。

丸の上にカーソルを重ねると観測所名を参照できる。

次にクリックすると気象観測と天気予報を参照できる。

マップの切り替え:黒色「×」印の緑ボタンをクリックして拡大、「-」印の緑ボタンをクリックして縮小、緑色の三角印をクリックして隣りの地図に切り替え


METAR-TAF: